Terminal Aerodrome Forecast
Issued by NWS Jackson, MS

Home | Current Version | Previous Version | Text Only | Print | Product List | Glossary On
Versions: 1 2 3 4 5 6 7 8 9 10 11 12 13 14 15 16
000
FTUS44 KJAN 222341
TAFGWO
TAF
KGWO 222341Z 2300/2324 11004KT P6SM FEW250
     FM230500 00000KT 2SM BR FEW250
     FM230600 16003KT 3/4SM BR FEW025 FEW250
     FM231100 00000KT 1/4SM FG BKN003 BKN250
     FM231400 16004KT 3SM BR BKN008 BKN250
     FM231500 16005KT 5SM BR FEW008 SCT250
     FM231600 18008KT P6SM FEW090 SCT250=

USA.gov is the U.S. government's official web portal to all federal, state and local government web resources and services.